sensor_id;sensor_type;location;lat;lon;timestamp;P1;durP1;ratioP1;P2;durP2;ratioP2
39454;SDS011;25155;41.890;23.446;2023-04-15T00:02:21;10.10;;;7.07;;
39454;SDS011;25155;41.890;23.446;2023-04-15T00:04:48;11.90;;;7.45;;
39454;SDS011;25155;41.890;23.446;2023-04-15T00:07:15;10.77;;;7.47;;
39454;SDS011;25155;41.890;23.446;2023-04-15T00:09:42;12.52;;;8.18;;
39454;SDS011;25155;41.890;23.446;2023-04-15T00:12:10;14.88;;;10.48;;
39454;SDS011;25155;41.890;23.446;2023-04-15T00:14:38;15.60;;;10.57;;
39454;SDS011;25155;41.890;23.446;2023-04-15T00:17:06;23.33;;;17.42;;
39454;SDS011;25155;41.890;23.446;2023-04-15T00:19:33;18.98;;;14.85;;
39454;SDS011;25155;41.890;23.446;2023-04-15T00:22:00;14.68;;;10.27;;
39454;SDS011;25155;41.890;23.446;2023-04-15T00:24:27;14.55;;;10.50;;
39454;SDS011;25155;41.890;23.446;2023-04-15T00:26:55;11.27;;;8.55;;
39454;SDS011;25155;41.890;23.446;2023-04-15T00:29:23;10.45;;;6.93;;
39454;SDS011;25155;41.890;23.446;2023-04-15T00:31:51;8.05;;;5.50;;
39454;SDS011;25155;41.890;23.446;2023-04-15T00:34:18;8.32;;;5.75;;
39454;SDS011;25155;41.890;23.446;2023-04-15T00:36:45;12.55;;;8.23;;
39454;SDS011;25155;41.890;23.446;2023-04-15T00:39:12;10.13;;;6.75;;
39454;SDS011;25155;41.890;23.446;2023-04-15T00:41:40;13.15;;;7.93;;
39454;SDS011;25155;41.890;23.446;2023-04-15T00:44:07;10.63;;;6.80;;
39454;SDS011;25155;41.890;23.446;2023-04-15T00:46:35;10.75;;;7.20;;
39454;SDS011;25155;41.890;23.446;2023-04-15T00:49:05;12.20;;;8.15;;
39454;SDS011;25155;41.890;23.446;2023-04-15T00:51:33;14.45;;;9.07;;
39454;SDS011;25155;41.890;23.446;2023-04-15T00:54:01;12.75;;;7.97;;
39454;SDS011;25155;41.890;23.446;2023-04-15T00:56:29;12.70;;;8.00;;
39454;SDS011;25155;41.890;23.446;2023-04-15T00:58:57;10.30;;;6.95;;
39454;SDS011;25155;41.890;23.446;2023-04-15T01:01:25;8.60;;;5.80;;
39454;SDS011;25155;41.890;23.446;2023-04-15T01:03:53;17.90;;;11.13;;
39454;SDS011;25155;41.890;23.446;2023-04-15T01:06:24;16.27;;;10.20;;
39454;SDS011;25155;41.890;23.446;2023-04-15T01:08:52;13.43;;;9.07;;
39454;SDS011;25155;41.890;23.446;2023-04-15T01:11:20;12.02;;;7.57;;
39454;SDS011;25155;41.890;23.446;2023-04-15T01:13:48;18.40;;;10.90;;
39454;SDS011;25155;41.890;23.446;2023-04-15T01:16:16;18.05;;;12.27;;
39454;SDS011;25155;41.890;23.446;2023-04-15T01:18:44;28.33;;;17.40;;
39454;SDS011;25155;41.890;23.446;2023-04-15T01:21:11;27.48;;;17.63;;
39454;SDS011;25155;41.890;23.446;2023-04-15T01:23:40;23.50;;;15.40;;
39454;SDS011;25155;41.890;23.446;2023-04-15T01:26:11;19.30;;;13.13;;
39454;SDS011;25155;41.890;23.446;2023-04-15T01:28:39;17.90;;;12.18;;
39454;SDS011;25155;41.890;23.446;2023-04-15T01:31:06;16.67;;;11.82;;
39454;SDS011;25155;41.890;23.446;2023-04-15T01:33:34;13.73;;;9.43;;
39454;SDS011;25155;41.890;23.446;2023-04-15T01:36:02;11.30;;;7.82;;
39454;SDS011;25155;41.890;23.446;2023-04-15T01:38:30;8.43;;;6.47;;
39454;SDS011;25155;41.890;23.446;2023-04-15T01:40:58;12.25;;;8.43;;
39454;SDS011;25155;41.890;23.446;2023-04-15T01:43:26;9.13;;;5.85;;
39454;SDS011;25155;41.890;23.446;2023-04-15T01:45:54;7.57;;;4.90;;
39454;SDS011;25155;41.890;23.446;2023-04-15T01:48:21;6.70;;;3.75;;
39454;SDS011;25155;41.890;23.446;2023-04-15T01:50:48;4.75;;;2.70;;
39454;SDS011;25155;41.890;23.446;2023-04-15T01:53:16;4.30;;;2.95;;
39454;SDS011;25155;41.890;23.446;2023-04-15T01:55:43;5.72;;;3.40;;
39454;SDS011;25155;41.890;23.446;2023-04-15T01:58:10;9.25;;;6.03;;
39454;SDS011;25155;41.890;23.446;2023-04-15T02:00:39;13.63;;;9.65;;
39454;SDS011;25155;41.890;23.446;2023-04-15T02:03:06;53.85;;;9.90;;
39454;SDS011;25155;41.890;23.446;2023-04-15T02:05:33;49.75;;;12.23;;
39454;SDS011;25155;41.890;23.446;2023-04-15T02:08:00;11.65;;;8.68;;
39454;SDS011;25155;41.890;23.446;2023-04-15T02:10:28;13.90;;;9.38;;
39454;SDS011;25155;41.890;23.446;2023-04-15T02:12:55;13.05;;;8.63;;
39454;SDS011;25155;41.890;23.446;2023-04-15T02:15:22;10.85;;;7.25;;
39454;SDS011;25155;41.890;23.446;2023-04-15T02:17:50;10.60;;;7.55;;
39454;SDS011;25155;41.890;23.446;2023-04-15T02:20:19;11.32;;;7.80;;
39454;SDS011;25155;41.890;23.446;2023-04-15T02:22:47;10.35;;;7.32;;
39454;SDS011;25155;41.890;23.446;2023-04-15T02:25:14;11.68;;;7.57;;
39454;SDS011;25155;41.890;23.446;2023-04-15T02:27:42;9.40;;;6.63;;
39454;SDS011;25155;41.890;23.446;2023-04-15T02:30:09;8.88;;;6.90;;
39454;SDS011;25155;41.890;23.446;2023-04-15T02:32:37;9.98;;;7.55;;
39454;SDS011;25155;41.890;23.446;2023-04-15T02:35:06;11.73;;;7.15;;
39454;SDS011;25155;41.890;23.446;2023-04-15T02:37:35;11.48;;;8.10;;
39454;SDS011;25155;41.890;23.446;2023-04-15T02:40:08;7.65;;;5.65;;
39454;SDS011;25155;41.890;23.446;2023-04-15T02:42:36;9.40;;;7.20;;
39454;SDS011;25155;41.890;23.446;2023-04-15T02:45:04;15.73;;;7.30;;
39454;SDS011;25155;41.890;23.446;2023-04-15T02:47:32;7.78;;;5.15;;
39454;SDS011;25155;41.890;23.446;2023-04-15T02:50:00;7.88;;;5.85;;
39454;SDS011;25155;41.890;23.446;2023-04-15T02:52:29;6.38;;;3.85;;
39454;SDS011;25155;41.890;23.446;2023-04-15T02:54:56;4.63;;;3.28;;
39454;SDS011;25155;41.890;23.446;2023-04-15T02:57:25;7.55;;;4.82;;
39454;SDS011;25155;41.890;23.446;2023-04-15T02:59:53;10.77;;;6.50;;
39454;SDS011;25155;41.890;23.446;2023-04-15T03:02:21;12.25;;;8.00;;
39454;SDS011;25155;41.890;23.446;2023-04-15T03:04:48;12.35;;;8.27;;
39454;SDS011;25155;41.890;23.446;2023-04-15T03:07:16;13.35;;;8.65;;
39454;SDS011;25155;41.890;23.446;2023-04-15T03:09:45;14.00;;;9.40;;
39454;SDS011;25155;41.890;23.446;2023-04-15T03:12:12;15.07;;;10.23;;
39454;SDS011;25155;41.890;23.446;2023-04-15T03:14:39;12.57;;;9.30;;
39454;SDS011;25155;41.890;23.446;2023-04-15T03:17:06;13.30;;;9.73;;
39454;SDS011;25155;41.890;23.446;2023-04-15T03:19:33;12.02;;;8.52;;
39454;SDS011;25155;41.890;23.446;2023-04-15T03:22:00;13.60;;;9.35;;
39454;SDS011;25155;41.890;23.446;2023-04-15T03:24:27;13.63;;;9.75;;
39454;SDS011;25155;41.890;23.446;2023-04-15T03:26:56;9.75;;;6.68;;
39454;SDS011;25155;41.890;23.446;2023-04-15T03:29:23;9.88;;;6.90;;
39454;SDS011;25155;41.890;23.446;2023-04-15T03:31:51;7.80;;;5.28;;
39454;SDS011;25155;41.890;23.446;2023-04-15T03:34:18;12.40;;;6.00;;
39454;SDS011;25155;41.890;23.446;2023-04-15T03:36:45;19.25;;;8.40;;
39454;SDS011;25155;41.890;23.446;2023-04-15T03:39:12;10.95;;;7.35;;
39454;SDS011;25155;41.890;23.446;2023-04-15T03:41:40;9.35;;;6.82;;
39454;SDS011;25155;41.890;23.446;2023-04-15T03:44:08;8.40;;;6.10;;
39454;SDS011;25155;41.890;23.446;2023-04-15T03:46:35;9.43;;;6.80;;
39454;SDS011;25155;41.890;23.446;2023-04-15T03:49:02;8.02;;;5.57;;
39454;SDS011;25155;41.890;23.446;2023-04-15T03:51:30;8.05;;;6.00;;
39454;SDS011;25155;41.890;23.446;2023-04-15T03:53:57;7.45;;;5.15;;
39454;SDS011;25155;41.890;23.446;2023-04-15T03:56:24;8.85;;;5.90;;
39454;SDS011;25155;41.890;23.446;2023-04-15T03:58:51;8.15;;;5.07;;
39454;SDS011;25155;41.890;23.446;2023-04-15T04:01:20;5.88;;;4.38;;
39454;SDS011;25155;41.890;23.446;2023-04-15T04:03:47;6.65;;;4.30;;
39454;SDS011;25155;41.890;23.446;2023-04-15T04:06:14;6.07;;;3.85;;
39454;SDS011;25155;41.890;23.446;2023-04-15T04:08:41;6.07;;;3.85;;
39454;SDS011;25155;41.890;23.446;2023-04-15T04:11:08;6.10;;;4.10;;
39454;SDS011;25155;41.890;23.446;2023-04-15T04:13:36;5.78;;;3.80;;
39454;SDS011;25155;41.890;23.446;2023-04-15T04:16:03;7.03;;;4.68;;
39454;SDS011;25155;41.890;23.446;2023-04-15T04:18:32;6.15;;;4.47;;
39454;SDS011;25155;41.890;23.446;2023-04-15T04:20:59;8.85;;;5.53;;
39454;SDS011;25155;41.890;23.446;2023-04-15T04:23:26;10.05;;;6.85;;
39454;SDS011;25155;41.890;23.446;2023-04-15T04:25:53;13.18;;;8.20;;
39454;SDS011;25155;41.890;23.446;2023-04-15T04:28:21;10.43;;;7.00;;
39454;SDS011;25155;41.890;23.446;2023-04-15T04:30:48;11.05;;;7.28;;
39454;SDS011;25155;41.890;23.446;2023-04-15T04:33:16;11.75;;;7.40;;
39454;SDS011;25155;41.890;23.446;2023-04-15T04:35:44;13.02;;;7.82;;
39454;SDS011;25155;41.890;23.446;2023-04-15T04:38:11;9.52;;;6.18;;
39454;SDS011;25155;41.890;23.446;2023-04-15T04:40:38;9.15;;;6.57;;
39454;SDS011;25155;41.890;23.446;2023-04-15T04:43:05;9.40;;;6.65;;
39454;SDS011;25155;41.890;23.446;2023-04-15T04:45:33;7.38;;;5.15;;
39454;SDS011;25155;41.890;23.446;2023-04-15T04:48:00;7.72;;;5.63;;
39454;SDS011;25155;41.890;23.446;2023-04-15T04:50:31;11.80;;;8.20;;
39454;SDS011;25155;41.890;23.446;2023-04-15T04:53:00;15.38;;;10.68;;
39454;SDS011;25155;41.890;23.446;2023-04-15T04:55:27;17.45;;;11.98;;
39454;SDS011;25155;41.890;23.446;2023-04-15T04:57:54;23.80;;;15.65;;
39454;SDS011;25155;41.890;23.446;2023-04-15T05:00:21;32.53;;;20.30;;
39454;SDS011;25155;41.890;23.446;2023-04-15T05:02:48;31.98;;;22.02;;
39454;SDS011;25155;41.890;23.446;2023-04-15T05:05:15;29.90;;;19.35;;
39454;SDS011;25155;41.890;23.446;2023-04-15T05:07:43;29.77;;;19.77;;
39454;SDS011;25155;41.890;23.446;2023-04-15T05:10:11;39.78;;;26.65;;
39454;SDS011;25155;41.890;23.446;2023-04-15T05:12:39;31.90;;;22.58;;
39454;SDS011;25155;41.890;23.446;2023-04-15T05:15:07;40.25;;;25.85;;
39454;SDS011;25155;41.890;23.446;2023-04-15T05:17:35;35.92;;;23.98;;
39454;SDS011;25155;41.890;23.446;2023-04-15T05:20:02;31.00;;;22.17;;
39454;SDS011;25155;41.890;23.446;2023-04-15T05:22:29;24.90;;;17.35;;
39454;SDS011;25155;41.890;23.446;2023-04-15T05:24:56;18.40;;;13.68;;
39454;SDS011;25155;41.890;23.446;2023-04-15T05:27:25;15.15;;;10.75;;
39454;SDS011;25155;41.890;23.446;2023-04-15T05:29:52;15.30;;;10.27;;
39454;SDS011;25155;41.890;23.446;2023-04-15T05:32:20;14.07;;;10.30;;
39454;SDS011;25155;41.890;23.446;2023-04-15T05:34:48;21.95;;;15.35;;
39454;SDS011;25155;41.890;23.446;2023-04-15T05:37:15;29.83;;;20.70;;
39454;SDS011;25155;41.890;23.446;2023-04-15T05:39:42;33.78;;;21.73;;
39454;SDS011;25155;41.890;23.446;2023-04-15T05:42:09;30.52;;;21.50;;
39454;SDS011;25155;41.890;23.446;2023-04-15T05:44:38;30.55;;;22.85;;
39454;SDS011;25155;41.890;23.446;2023-04-15T05:47:05;34.45;;;24.10;;
39454;SDS011;25155;41.890;23.446;2023-04-15T05:49:32;28.33;;;18.35;;
39454;SDS011;25155;41.890;23.446;2023-04-15T05:52:00;26.25;;;17.45;;
39454;SDS011;25155;41.890;23.446;2023-04-15T05:54:27;24.80;;;18.63;;
39454;SDS011;25155;41.890;23.446;2023-04-15T05:56:54;24.52;;;16.20;;
39454;SDS011;25155;41.890;23.446;2023-04-15T05:59:21;18.38;;;12.90;;
39454;SDS011;25155;41.890;23.446;2023-04-15T06:01:50;20.75;;;12.98;;
39454;SDS011;25155;41.890;23.446;2023-04-15T06:04:18;15.55;;;11.15;;
39454;SDS011;25155;41.890;23.446;2023-04-15T06:06:46;16.58;;;11.25;;
39454;SDS011;25155;41.890;23.446;2023-04-15T06:09:13;15.05;;;10.10;;
39454;SDS011;25155;41.890;23.446;2023-04-15T06:11:40;14.48;;;10.32;;
39454;SDS011;25155;41.890;23.446;2023-04-15T06:14:07;13.38;;;9.43;;
39454;SDS011;25155;41.890;23.446;2023-04-15T06:16:34;14.00;;;9.80;;
39454;SDS011;25155;41.890;23.446;2023-04-15T06:19:03;12.02;;;9.23;;
39454;SDS011;25155;41.890;23.446;2023-04-15T06:21:30;13.13;;;8.55;;
39454;SDS011;25155;41.890;23.446;2023-04-15T06:23:57;13.07;;;8.60;;
39454;SDS011;25155;41.890;23.446;2023-04-15T06:26:25;13.07;;;8.48;;
39454;SDS011;25155;41.890;23.446;2023-04-15T06:28:52;11.80;;;8.68;;
39454;SDS011;25155;41.890;23.446;2023-04-15T06:31:19;14.75;;;10.07;;
39454;SDS011;25155;41.890;23.446;2023-04-15T06:33:47;16.98;;;12.13;;
39454;SDS011;25155;41.890;23.446;2023-04-15T06:36:15;12.40;;;9.23;;
39454;SDS011;25155;41.890;23.446;2023-04-15T06:38:42;16.58;;;10.82;;
39454;SDS011;25155;41.890;23.446;2023-04-15T06:41:09;13.25;;;9.52;;
39454;SDS011;25155;41.890;23.446;2023-04-15T06:43:37;18.80;;;14.43;;
39454;SDS011;25155;41.890;23.446;2023-04-15T06:46:04;17.25;;;11.93;;
39454;SDS011;25155;41.890;23.446;2023-04-15T06:48:31;19.17;;;13.65;;
39454;SDS011;25155;41.890;23.446;2023-04-15T06:50:58;20.10;;;15.20;;
39454;SDS011;25155;41.890;23.446;2023-04-15T06:53:27;21.95;;;16.33;;
39454;SDS011;25155;41.890;23.446;2023-04-15T06:55:54;21.92;;;15.32;;
39454;SDS011;25155;41.890;23.446;2023-04-15T06:58:21;15.52;;;11.15;;
39454;SDS011;25155;41.890;23.446;2023-04-15T07:00:48;14.45;;;10.73;;
39454;SDS011;25155;41.890;23.446;2023-04-15T07:03:15;19.48;;;14.98;;
39454;SDS011;25155;41.890;23.446;2023-04-15T07:05:43;20.95;;;15.70;;
39454;SDS011;25155;41.890;23.446;2023-04-15T07:08:10;20.05;;;16.15;;
39454;SDS011;25155;41.890;23.446;2023-04-15T07:10:39;21.95;;;17.67;;
39454;SDS011;25155;41.890;23.446;2023-04-15T07:13:06;20.85;;;16.10;;
39454;SDS011;25155;41.890;23.446;2023-04-15T07:15:33;24.13;;;17.30;;
39454;SDS011;25155;41.890;23.446;2023-04-15T07:18:01;22.30;;;17.52;;
39454;SDS011;25155;41.890;23.446;2023-04-15T07:20:28;24.50;;;19.23;;
39454;SDS011;25155;41.890;23.446;2023-04-15T07:22:55;25.20;;;18.83;;
39454;SDS011;25155;41.890;23.446;2023-04-15T07:25:22;25.52;;;19.75;;
39454;SDS011;25155;41.890;23.446;2023-04-15T07:27:51;25.95;;;19.45;;
39454;SDS011;25155;41.890;23.446;2023-04-15T07:30:18;25.85;;;20.20;;
39454;SDS011;25155;41.890;23.446;2023-04-15T07:32:45;25.30;;;19.77;;
39454;SDS011;25155;41.890;23.446;2023-04-15T07:35:12;30.33;;;23.60;;
39454;SDS011;25155;41.890;23.446;2023-04-15T07:37:40;30.52;;;25.90;;
39454;SDS011;25155;41.890;23.446;2023-04-15T07:40:08;34.35;;;23.85;;
39454;SDS011;25155;41.890;23.446;2023-04-15T07:42:36;34.17;;;25.15;;
39454;SDS011;25155;41.890;23.446;2023-04-15T07:45:05;30.92;;;24.05;;
39454;SDS011;25155;41.890;23.446;2023-04-15T07:47:34;27.52;;;21.88;;
39454;SDS011;25155;41.890;23.446;2023-04-15T07:50:01;18.65;;;13.70;;
39454;SDS011;25155;41.890;23.446;2023-04-15T07:52:28;25.63;;;17.23;;
39454;SDS011;25155;41.890;23.446;2023-04-15T07:54:56;23.67;;;16.70;;
39454;SDS011;25155;41.890;23.446;2023-04-15T07:57:23;16.15;;;12.10;;
39454;SDS011;25155;41.890;23.446;2023-04-15T07:59:50;16.13;;;12.15;;
39454;SDS011;25155;41.890;23.446;2023-04-15T08:02:19;21.08;;;15.32;;
39454;SDS011;25155;41.890;23.446;2023-04-15T08:04:46;20.23;;;14.98;;
39454;SDS011;25155;41.890;23.446;2023-04-15T08:07:13;19.33;;;14.20;;
39454;SDS011;25155;41.890;23.446;2023-04-15T08:09:40;17.38;;;11.77;;
39454;SDS011;25155;41.890;23.446;2023-04-15T08:12:07;14.32;;;10.30;;
39454;SDS011;25155;41.890;23.446;2023-04-15T08:14:37;15.63;;;11.65;;
39454;SDS011;25155;41.890;23.446;2023-04-15T08:17:04;15.68;;;11.45;;
39454;SDS011;25155;41.890;23.446;2023-04-15T08:19:33;17.23;;;11.35;;
39454;SDS011;25155;41.890;23.446;2023-04-15T08:22:00;15.63;;;11.02;;
39454;SDS011;25155;41.890;23.446;2023-04-15T08:24:28;15.05;;;10.15;;
39454;SDS011;25155;41.890;23.446;2023-04-15T08:26:56;11.07;;;6.85;;
39454;SDS011;25155;41.890;23.446;2023-04-15T08:29:24;7.55;;;5.20;;
39454;SDS011;25155;41.890;23.446;2023-04-15T08:31:51;6.47;;;4.30;;
39454;SDS011;25155;41.890;23.446;2023-04-15T08:34:19;9.45;;;5.30;;
39454;SDS011;25155;41.890;23.446;2023-04-15T08:36:48;7.88;;;5.32;;
39454;SDS011;25155;41.890;23.446;2023-04-15T08:39:15;10.60;;;5.28;;
39454;SDS011;25155;41.890;23.446;2023-04-15T08:41:44;8.75;;;4.50;;
39454;SDS011;25155;41.890;23.446;2023-04-15T08:44:12;6.32;;;3.10;;
39454;SDS011;25155;41.890;23.446;2023-04-15T08:46:40;6.32;;;3.17;;
39454;SDS011;25155;41.890;23.446;2023-04-15T08:49:09;4.88;;;2.72;;
39454;SDS011;25155;41.890;23.446;2023-04-15T08:51:37;3.78;;;2.35;;
39454;SDS011;25155;41.890;23.446;2023-04-15T08:54:07;7.18;;;3.40;;
39454;SDS011;25155;41.890;23.446;2023-04-15T08:56:35;4.88;;;3.00;;
39454;SDS011;25155;41.890;23.446;2023-04-15T08:59:04;7.82;;;3.90;;
39454;SDS011;25155;41.890;23.446;2023-04-15T09:01:32;5.07;;;2.80;;
39454;SDS011;25155;41.890;23.446;2023-04-15T09:04:01;5.90;;;3.17;;
39454;SDS011;25155;41.890;23.446;2023-04-15T09:06:30;8.07;;;4.00;;
39454;SDS011;25155;41.890;23.446;2023-04-15T09:08:58;6.80;;;3.10;;
39454;SDS011;25155;41.890;23.446;2023-04-15T09:11:26;6.30;;;2.60;;
39454;SDS011;25155;41.890;23.446;2023-04-15T09:13:56;6.40;;;2.90;;
39454;SDS011;25155;41.890;23.446;2023-04-15T09:16:23;4.70;;;2.22;;
39454;SDS011;25155;41.890;23.446;2023-04-15T09:18:50;4.38;;;2.30;;
39454;SDS011;25155;41.890;23.446;2023-04-15T09:21:17;3.70;;;2.20;;
39454;SDS011;25155;41.890;23.446;2023-04-15T09:23:54;5.80;;;2.17;;
39454;SDS011;25155;41.890;23.446;2023-04-15T09:26:33;2.95;;;1.90;;
39454;SDS011;25155;41.890;23.446;2023-04-15T09:29:03;3.47;;;1.80;;
39454;SDS011;25155;41.890;23.446;2023-04-15T09:31:38;4.55;;;2.20;;
39454;SDS011;25155;41.890;23.446;2023-04-15T09:34:06;2.70;;;1.75;;
39454;SDS011;25155;41.890;23.446;2023-04-15T09:36:37;4.15;;;1.70;;
39454;SDS011;25155;41.890;23.446;2023-04-15T09:39:18;3.45;;;1.80;;
39454;SDS011;25155;41.890;23.446;2023-04-15T09:41:47;2.72;;;1.50;;
39454;SDS011;25155;41.890;23.446;2023-04-15T09:44:31;3.00;;;1.70;;
39454;SDS011;25155;41.890;23.446;2023-04-15T09:46:58;2.33;;;1.70;;
39454;SDS011;25155;41.890;23.446;2023-04-15T09:49:25;2.92;;;1.63;;
39454;SDS011;25155;41.890;23.446;2023-04-15T09:51:56;3.03;;;1.70;;
39454;SDS011;25155;41.890;23.446;2023-04-15T09:54:24;1.75;;;1.33;;
39454;SDS011;25155;41.890;23.446;2023-04-15T09:56:52;2.58;;;1.60;;
39454;SDS011;25155;41.890;23.446;2023-04-15T09:59:20;2.92;;;1.67;;
39454;SDS011;25155;41.890;23.446;2023-04-15T10:01:48;2.17;;;1.50;;
39454;SDS011;25155;41.890;23.446;2023-04-15T10:04:15;3.38;;;1.83;;
39454;SDS011;25155;41.890;23.446;2023-04-15T10:06:42;2.17;;;1.60;;
39454;SDS011;25155;41.890;23.446;2023-04-15T10:09:11;2.40;;;1.50;;
39454;SDS011;25155;41.890;23.446;2023-04-15T10:11:38;2.63;;;1.30;;
39454;SDS011;25155;41.890;23.446;2023-04-15T10:14:08;4.00;;;1.60;;
39454;SDS011;25155;41.890;23.446;2023-04-15T10:16:36;3.83;;;2.10;;
39454;SDS011;25155;41.890;23.446;2023-04-15T10:19:06;2.50;;;1.70;;
39454;SDS011;25155;41.890;23.446;2023-04-15T10:21:35;2.05;;;1.48;;
39454;SDS011;25155;41.890;23.446;2023-04-15T10:24:03;3.95;;;1.73;;
39454;SDS011;25155;41.890;23.446;2023-04-15T10:26:32;3.17;;;1.60;;
39454;SDS011;25155;41.890;23.446;2023-04-15T10:29:00;2.03;;;1.60;;
39454;SDS011;25155;41.890;23.446;2023-04-15T10:31:30;4.47;;;1.70;;
39454;SDS011;25155;41.890;23.446;2023-04-15T10:33:58;3.25;;;1.70;;
39454;SDS011;25155;41.890;23.446;2023-04-15T10:36:30;2.80;;;1.48;;
39454;SDS011;25155;41.890;23.446;2023-04-15T10:38:58;1.88;;;1.42;;
39454;SDS011;25155;41.890;23.446;2023-04-15T10:41:26;1.77;;;1.45;;
39454;SDS011;25155;41.890;23.446;2023-04-15T10:43:59;2.80;;;1.55;;
39454;SDS011;25155;41.890;23.446;2023-04-15T10:46:35;2.30;;;1.65;;
39454;SDS011;25155;41.890;23.446;2023-04-15T10:49:07;2.50;;;1.67;;
39454;SDS011;25155;41.890;23.446;2023-04-15T10:51:36;3.78;;;1.80;;
39454;SDS011;25155;41.890;23.446;2023-04-15T10:54:07;3.60;;;1.60;;
39454;SDS011;25155;41.890;23.446;2023-04-15T10:56:40;4.15;;;1.63;;
39454;SDS011;25155;41.890;23.446;2023-04-15T10:59:08;4.10;;;1.60;;
39454;SDS011;25155;41.890;23.446;2023-04-15T11:01:53;3.60;;;1.42;;
39454;SDS011;25155;41.890;23.446;2023-04-15T11:07:35;1.83;;;1.40;;
39454;SDS011;25155;41.890;23.446;2023-04-15T11:10:48;2.85;;;1.58;;
39454;SDS011;25155;41.890;23.446;2023-04-15T11:13:19;2.33;;;1.60;;
39454;SDS011;25155;41.890;23.446;2023-04-15T11:15:49;2.25;;;1.35;;
39454;SDS011;25155;41.890;23.446;2023-04-15T11:18:18;3.20;;;1.80;;
39454;SDS011;25155;41.890;23.446;2023-04-15T11:20:47;2.45;;;1.60;;
39454;SDS011;25155;41.890;23.446;2023-04-15T11:23:16;2.17;;;1.55;;
39454;SDS011;25155;41.890;23.446;2023-04-15T11:25:45;2.60;;;1.70;;
39454;SDS011;25155;41.890;23.446;2023-04-15T11:28:13;2.63;;;1.63;;
39454;SDS011;25155;41.890;23.446;2023-04-15T11:30:40;2.53;;;1.80;;
39454;SDS011;25155;41.890;23.446;2023-04-15T11:33:10;2.58;;;1.70;;
39454;SDS011;25155;41.890;23.446;2023-04-15T11:35:40;3.92;;;1.70;;
39454;SDS011;25155;41.890;23.446;2023-04-15T11:38:08;2.10;;;1.52;;
39454;SDS011;25155;41.890;23.446;2023-04-15T11:40:37;4.07;;;1.70;;
39454;SDS011;25155;41.890;23.446;2023-04-15T11:43:05;3.05;;;1.75;;
39454;SDS011;25155;41.890;23.446;2023-04-15T11:45:33;3.70;;;1.73;;
39454;SDS011;25155;41.890;23.446;2023-04-15T11:48:04;3.08;;;1.77;;
39454;SDS011;25155;41.890;23.446;2023-04-15T11:50:33;2.97;;;1.70;;
39454;SDS011;25155;41.890;23.446;2023-04-15T11:53:02;2.85;;;1.90;;
39454;SDS011;25155;41.890;23.446;2023-04-15T11:55:39;2.83;;;1.52;;
39454;SDS011;25155;41.890;23.446;2023-04-15T11:58:09;3.03;;;1.50;;
39454;SDS011;25155;41.890;23.446;2023-04-15T12:00:37;2.85;;;1.50;;
39454;SDS011;25155;41.890;23.446;2023-04-15T12:03:19;3.70;;;1.80;;
39454;SDS011;25155;41.890;23.446;2023-04-15T12:08:57;3.35;;;1.65;;
39454;SDS011;25155;41.890;23.446;2023-04-15T12:11:36;2.72;;;1.88;;
39454;SDS011;25155;41.890;23.446;2023-04-15T12:14:18;1.88;;;1.52;;
39454;SDS011;25155;41.890;23.446;2023-04-15T12:16:48;1.65;;;1.50;;
39454;SDS011;25155;41.890;23.446;2023-04-15T12:19:21;2.43;;;1.60;;
39454;SDS011;25155;41.890;23.446;2023-04-15T12:21:50;2.10;;;1.50;;
39454;SDS011;25155;41.890;23.446;2023-04-15T12:24:22;2.50;;;1.60;;
39454;SDS011;25155;41.890;23.446;2023-04-15T12:26:49;2.30;;;1.65;;
39454;SDS011;25155;41.890;23.446;2023-04-15T12:29:17;2.50;;;1.60;;
39454;SDS011;25155;41.890;23.446;2023-04-15T12:31:46;3.25;;;1.65;;
39454;SDS011;25155;41.890;23.446;2023-04-15T12:34:15;2.38;;;1.50;;
39454;SDS011;25155;41.890;23.446;2023-04-15T12:36:44;5.03;;;1.85;;
39454;SDS011;25155;41.890;23.446;2023-04-15T12:39:11;3.00;;;1.60;;
39454;SDS011;25155;41.890;23.446;2023-04-15T12:41:40;2.95;;;1.58;;
39454;SDS011;25155;41.890;23.446;2023-04-15T12:44:07;1.80;;;1.30;;
39454;SDS011;25155;41.890;23.446;2023-04-15T12:46:34;3.88;;;1.55;;
39454;SDS011;25155;41.890;23.446;2023-04-15T12:49:01;3.45;;;1.60;;
39454;SDS011;25155;41.890;23.446;2023-04-15T12:51:28;2.30;;;1.63;;
39454;SDS011;25155;41.890;23.446;2023-04-15T12:53:56;3.03;;;1.58;;
39454;SDS011;25155;41.890;23.446;2023-04-15T12:56:23;4.45;;;1.90;;
39454;SDS011;25155;41.890;23.446;2023-04-15T12:58:52;2.88;;;1.60;;
39454;SDS011;25155;41.890;23.446;2023-04-15T13:01:19;3.00;;;1.55;;
39454;SDS011;25155;41.890;23.446;2023-04-15T13:03:46;3.05;;;1.60;;
39454;SDS011;25155;41.890;23.446;2023-04-15T13:06:15;2.70;;;1.55;;
39454;SDS011;25155;41.890;23.446;2023-04-15T13:08:42;1.90;;;1.40;;
39454;SDS011;25155;41.890;23.446;2023-04-15T13:11:10;2.63;;;1.58;;
39454;SDS011;25155;41.890;23.446;2023-04-15T13:13:37;2.78;;;1.73;;
39454;SDS011;25155;41.890;23.446;2023-04-15T13:16:06;3.75;;;1.80;;
39454;SDS011;25155;41.890;23.446;2023-04-15T13:18:33;1.92;;;1.40;;
39454;SDS011;25155;41.890;23.446;2023-04-15T13:21:00;2.35;;;1.60;;
39454;SDS011;25155;41.890;23.446;2023-04-15T13:23:28;3.00;;;1.70;;
39454;SDS011;25155;41.890;23.446;2023-04-15T13:25:55;2.50;;;1.60;;
39454;SDS011;25155;41.890;23.446;2023-04-15T13:28:22;2.85;;;1.50;;
39454;SDS011;25155;41.890;23.446;2023-04-15T13:30:49;1.73;;;1.30;;
39454;SDS011;25155;41.890;23.446;2023-04-15T13:33:18;1.98;;;1.45;;
39454;SDS011;25155;41.890;23.446;2023-04-15T13:35:45;2.40;;;1.50;;
39454;SDS011;25155;41.890;23.446;2023-04-15T13:38:12;2.08;;;1.42;;
39454;SDS011;25155;41.890;23.446;2023-04-15T13:40:39;2.53;;;1.50;;
39454;SDS011;25155;41.890;23.446;2023-04-15T13:43:06;2.13;;;1.50;;
39454;SDS011;25155;41.890;23.446;2023-04-15T13:45:33;2.30;;;1.40;;
39454;SDS011;25155;41.890;23.446;2023-04-15T13:48:00;4.30;;;1.60;;
39454;SDS011;25155;41.890;23.446;2023-04-15T13:50:28;1.85;;;1.20;;
39454;SDS011;25155;41.890;23.446;2023-04-15T13:52:55;3.72;;;1.50;;
39454;SDS011;25155;41.890;23.446;2023-04-15T13:55:23;2.25;;;1.33;;
39454;SDS011;25155;41.890;23.446;2023-04-15T13:57:50;1.10;;;1.00;;
39454;SDS011;25155;41.890;23.446;2023-04-15T14:00:17;0.88;;;0.88;;
39454;SDS011;25155;41.890;23.446;2023-04-15T14:02:44;1.85;;;1.15;;
39454;SDS011;25155;41.890;23.446;2023-04-15T14:05:11;0.77;;;0.77;;
39454;SDS011;25155;41.890;23.446;2023-04-15T14:07:40;1.02;;;1.00;;
39454;SDS011;25155;41.890;23.446;2023-04-15T14:10:07;1.70;;;1.30;;
39454;SDS011;25155;41.890;23.446;2023-04-15T14:12:34;1.65;;;1.13;;
39454;SDS011;25155;41.890;23.446;2023-04-15T14:15:01;1.40;;;1.08;;
39454;SDS011;25155;41.890;23.446;2023-04-15T14:17:29;1.65;;;1.27;;
39454;SDS011;25155;41.890;23.446;2023-04-15T14:19:56;1.98;;;1.27;;
39454;SDS011;25155;41.890;23.446;2023-04-15T14:22:23;2.47;;;1.48;;
39454;SDS011;25155;41.890;23.446;2023-04-15T14:24:52;2.07;;;1.50;;
39454;SDS011;25155;41.890;23.446;2023-04-15T14:27:19;2.40;;;1.48;;
39454;SDS011;25155;41.890;23.446;2023-04-15T14:29:47;3.55;;;1.83;;
39454;SDS011;25155;41.890;23.446;2023-04-15T14:32:14;1.83;;;1.40;;
39454;SDS011;25155;41.890;23.446;2023-04-15T14:34:41;1.52;;;1.30;;
39454;SDS011;25155;41.890;23.446;2023-04-15T14:37:08;1.50;;;1.13;;
39454;SDS011;25155;41.890;23.446;2023-04-15T14:39:35;1.67;;;1.30;;